Time;durP1;ratioP1;P1;durP2;ratioP2;P2;SDS_P1;SDS_P2;PMS_P1;PMS_P2;Temp;Humidity;BMP_temperature;BMP_pressure;BME280_temperature;BME280_humidity;BME280_pressure;Samples;Min_cycle;Max_cycle;Signal;HPM_P1;HPM_P2
2022/01/17 00:00:14;;;;;;;8.70;3.87;;;;;;;10.59;42.30;100300.20;1758386;81;20937;-64
2022/01/17 00:02:43;;;;;;;8.70;4.37;;;;;;;10.76;42.05;100304.70;1752795;81;21509;-65
2022/01/17 00:05:10;;;;;;;9.18;4.10;;;;;;;10.60;42.38;100300.50;1777539;80;21136;-66
2022/01/17 00:07:37;;;;;;;7.30;3.45;;;;;;;10.69;42.38;100295.52;1778699;80;20945;-65
2022/01/17 00:10:05;;;;;;;6.92;3.22;;;;;;;10.64;42.42;100297.34;1778535;80;21149;-73
2022/01/17 00:12:35;;;;;;;8.75;3.58;;;;;;;10.87;42.12;100289.88;1778933;80;21113;-64
2022/01/17 00:15:00;;;;;;;7.20;3.62;;;;;;;10.75;42.29;100281.73;1781817;80;21066;-64
2022/01/17 00:17:35;;;;;;;8.28;3.25;;;;;;;10.73;42.19;100277.21;1778272;80;21840;-64
2022/01/17 00:20:09;;;;;;;9.63;4.20;;;;;;;10.66;42.36;100281.04;1712386;83;20983;-75
2022/01/17 00:22:31;;;;;;;10.13;4.20;;;;;;;10.77;42.23;100275.05;1778848;80;21066;-65
2022/01/17 00:25:03;;;;;;;8.60;3.98;;;;;;;10.86;42.13;100273.94;1778843;80;20983;-75
2022/01/17 00:27:31;;;;;;;8.73;4.00;;;;;;;10.79;42.21;100277.77;1780712;80;21556;-64
2022/01/17 00:29:58;;;;;;;8.28;3.98;;;;;;;10.89;42.01;100269.66;1777122;80;22390;-64
2022/01/17 00:32:26;;;;;;;6.97;2.83;;;;;;;11.15;41.62;100267.82;1779078;80;21079;-64
2022/01/17 00:34:56;;;;;;;7.65;3.22;;;;;;;11.17;41.41;100261.91;1780166;80;20971;-65
2022/01/17 00:37:23;;;;;;;7.22;3.67;;;;;;;10.23;42.53;100267.86;1778353;80;21008;-64
2022/01/17 00:39:51;;;;;;;8.18;3.40;;;;;;;10.58;42.37;100260.30;1778728;80;21109;-71
2022/01/17 00:42:18;;;;;;;6.67;3.47;;;;;;;10.47;42.39;100252.94;1777237;80;22379;-63
2022/01/17 00:44:47;;;;;;;7.62;3.22;;;;;;;10.43;42.57;100249.89;1778592;80;21018;-63
2022/01/17 00:47:13;;;;;;;7.72;2.83;;;;;;;10.48;42.43;100250.14;1778309;80;21000;-63
2022/01/17 00:49:41;;;;;;;8.15;3.98;;;;;;;10.44;42.56;100252.00;1780430;80;20984;-66
2022/01/17 00:52:08;;;;;;;7.42;3.00;;;;;;;10.50;42.53;100254.39;1778438;80;20988;-62
2022/01/17 00:54:38;;;;;;;9.33;4.05;;;;;;;10.71;42.09;100243.48;1780583;80;21148;-63
2022/01/17 00:57:05;;;;;;;7.58;3.58;;;;;;;10.41;42.58;100236.72;1776870;80;21599;-63
2022/01/17 00:59:31;;;;;;;11.20;4.85;;;;;;;10.51;42.50;100229.44;1780480;80;21074;-63
2022/01/17 01:01:58;;;;;;;8.83;3.75;;;;;;;10.65;42.16;100226.49;1778391;80;20943;-66
2022/01/17 01:04:24;;;;;;;9.73;4.85;;;;;;;10.78;42.09;100228.42;1774448;80;21397;-65
2022/01/17 01:06:51;;;;;;;8.53;4.12;;;;;;;10.90;41.78;100218.61;1771548;80;21533;-65
2022/01/17 01:09:20;;;;;;;10.32;4.70;;;;;;;10.71;41.87;100215.31;1765717;80;21030;-63
2022/01/17 01:11:50;;;;;;;7.00;3.95;;;;;;;10.67;42.08;100217.47;1767886;80;21481;-67
2022/01/17 01:14:16;;;;;;;9.85;4.72;;;;;;;10.80;42.00;100218.62;1764624;80;21079;-63
2022/01/17 01:16:44;;;;;;;9.90;4.40;;;;;;;10.43;42.21;100217.81;1769966;80;21016;-65
2022/01/17 01:19:27;;;;;;;10.78;4.85;;;;;;;10.65;42.10;100218.17;1766067;80;22368;-63
2022/01/17 01:27:38;;;;;;;11.18;5.65;;;;;;;10.46;42.25;100219.56;1764839;80;21063;-74
2022/01/17 01:29:48;;;;;;;14.40;6.45;;;;;;;10.48;42.23;100218.06;1767428;80;20933;-64
2022/01/17 01:32:23;;;;;;;10.48;5.55;;;;;;;10.53;42.17;100209.22;1768300;80;21156;-75
2022/01/17 01:34:51;;;;;;;14.15;6.45;;;;;;;10.46;42.20;100200.02;1767280;80;22329;-63
2022/01/17 01:37:16;;;;;;;16.60;6.80;;;;;;;10.40;42.24;100196.03;1764990;80;20983;-69
2022/01/17 01:39:43;;;;;;;12.68;6.53;;;;;;;10.28;42.41;100202.70;1768075;80;21093;-63
2022/01/17 01:42:15;;;;;;;12.78;6.03;;;;;;;10.33;42.35;100192.53;1766520;80;21451;-74
2022/01/17 01:44:41;;;;;;;13.18;6.60;;;;;;;10.55;41.89;100194.19;1767396;80;21293;-63
2022/01/17 01:47:11;;;;;;;11.97;6.50;;;;;;;10.62;41.50;100191.66;1766183;80;20939;-63
2022/01/17 01:49:41;;;;;;;13.08;5.75;;;;;;;10.36;41.82;100186.47;1766919;80;20979;-63
2022/01/17 01:52:08;;;;;;;11.43;6.25;;;;;;;10.62;41.51;100182.54;1763126;80;20987;-72
2022/01/17 01:54:34;;;;;;;13.38;7.00;;;;;;;10.51;41.41;100176.01;1764986;80;21545;-63
2022/01/17 01:57:02;;;;;;;11.30;6.10;;;;;;;10.56;41.37;100179.36;1762627;80;21135;-65
2022/01/17 01:59:31;;;;;;;12.55;5.90;;;;;;;10.63;41.14;100163.30;1761818;80;21398;-76
2022/01/17 02:01:58;;;;;;;14.45;6.55;;;;;;;10.71;40.83;100156.65;1763580;80;21568;-66
2022/01/17 02:04:25;;;;;;;10.48;5.03;;;;;;;10.69;40.86;100156.84;1767645;80;20975;-74
2022/01/17 02:06:54;;;;;;;10.08;5.58;;;;;;;10.60;41.04;100151.43;1773356;80;21062;-63
2022/01/17 02:09:23;;;;;;;11.83;5.80;;;;;;;10.69;40.68;100148.22;1773436;80;21140;-69
2022/01/17 02:11:52;;;;;;;11.55;5.25;;;;;;;10.65;40.61;100150.89;1773040;80;21598;-62
2022/01/17 02:14:18;;;;;;;9.23;5.03;;;;;;;10.69;40.41;100150.33;1772290;80;20986;-66
2022/01/17 02:16:48;;;;;;;11.25;5.25;;;;;;;10.77;39.99;100149.90;1774492;80;21078;-66
2022/01/17 02:19:20;;;;;;;10.60;5.25;;;;;;;10.89;39.77;100151.81;1774704;80;20995;-65
2022/01/17 02:21:47;;;;;;;9.90;5.22;;;;;;;10.92;39.45;100151.94;1773053;80;21104;-62
2022/01/17 02:24:20;;;;;;;8.88;5.28;;;;;;;11.03;39.33;100141.00;1774347;80;20991;-70
2022/01/17 02:26:49;;;;;;;11.40;5.47;;;;;;;11.11;39.00;100137.45;1773995;79;21117;-64
2022/01/17 02:29:15;;;;;;;10.15;4.58;;;;;;;11.26;38.44;100129.03;1773627;80;21008;-73
2022/01/17 02:31:43;;;;;;;8.55;4.90;;;;;;;11.11;38.48;100130.92;1773392;79;20992;-62
2022/01/17 02:34:11;;;;;;;8.33;4.70;;;;;;;10.80;38.50;100132.59;1772341;80;21149;-66
2022/01/17 02:36:38;;;;;;;10.60;5.83;;;;;;;10.88;38.41;100132.45;1773651;80;21057;-62
2022/01/17 02:39:04;;;;;;;11.35;5.70;;;;;;;10.96;38.02;100124.48;1770682;80;21026;-75
2022/01/17 02:41:36;;;;;;;11.38;5.58;;;;;;;11.01;37.94;100121.31;1774651;80;21086;-64
2022/01/17 02:44:03;;;;;;;10.13;5.65;;;;;;;10.94;37.85;100111.62;1770390;80;21063;-63
2022/01/17 02:46:29;;;;;;;9.25;5.12;;;;;;;10.96;37.68;100105.73;1765449;80;21118;-64
2022/01/17 02:49:02;;;;;;;9.78;5.53;;;;;;;10.89;37.66;100098.34;1772251;79;20932;-62
2022/01/17 02:51:31;;;;;;;11.15;5.45;;;;;;;10.73;37.93;100092.61;1762818;80;21095;-65
2022/01/17 02:53:58;;;;;;;7.90;4.45;;;;;;;10.81;37.76;100088.56;1771240;80;21298;-64
2022/01/17 02:56:25;;;;;;;8.88;4.35;;;;;;;10.90;37.73;100084.31;1772604;80;21007;-64
2022/01/17 02:58:52;;;;;;;8.50;4.30;;;;;;;11.13;37.38;100079.35;1768294;80;21141;-65
2022/01/17 03:01:23;;;;;;;7.37;4.10;;;;;;;11.30;37.16;100079.38;1769535;80;21351;-69
2022/01/17 03:03:50;;;;;;;9.08;4.33;;;;;;;11.39;36.96;100082.62;1773209;80;21398;-64
2022/01/17 03:06:18;;;;;;;10.45;4.90;;;;;;;11.35;36.86;100077.48;1760285;80;20944;-70
2022/01/17 03:08:45;;;;;;;7.62;3.92;;;;;;;11.35;36.86;100070.96;1764069;80;21063;-64
2022/01/17 03:11:18;;;;;;;8.73;4.35;;;;;;;11.12;37.14;100076.44;1761624;80;20956;-63
2022/01/17 03:13:47;;;;;;;8.53;3.77;;;;;;;10.79;37.74;100071.78;1760421;80;21063;-65
2022/01/17 03:16:16;;;;;;;7.67;3.95;;;;;;;11.06;37.61;100071.97;1759875;80;20940;-74
2022/01/17 03:18:50;;;;;;;7.75;3.80;;;;;;;11.23;37.25;100065.48;1763394;80;21560;-63
2022/01/17 03:21:19;;;;;;;7.30;4.12;;;;;;;10.98;37.49;100075.53;1759862;80;22300;-63
2022/01/17 03:23:48;;;;;;;6.97;3.92;;;;;;;10.93;37.64;100078.72;1762318;80;21957;-64
2022/01/17 03:26:14;;;;;;;6.58;3.67;;;;;;;10.76;37.72;100076.09;1759228;80;20999;-65
2022/01/17 03:28:44;;;;;;;7.53;3.83;;;;;;;10.86;37.64;100075.25;1763453;80;21050;-64
2022/01/17 03:31:11;;;;;;;7.85;3.80;;;;;;;10.95;37.59;100082.46;1760021;80;21027;-64
2022/01/17 03:33:37;;;;;;;6.28;3.08;;;;;;;11.09;37.50;100075.52;1764136;80;20975;-63
2022/01/17 03:36:05;;;;;;;8.48;3.58;;;;;;;11.49;36.70;100069.23;1758812;80;21135;-63
2022/01/17 03:38:33;;;;;;;5.85;3.05;;;;;;;11.41;36.65;100067.09;1726136;82;20941;-64
2022/01/17 03:41:01;;;;;;;8.43;4.15;;;;;;;11.56;36.51;100067.47;1761779;80;21099;-62
2022/01/17 03:43:28;;;;;;;7.90;3.85;;;;;;;11.39;36.60;100076.91;1727342;82;21003;-63
2022/01/17 03:45:57;;;;;;;5.03;2.75;;;;;;;11.56;36.45;100068.77;1763369;80;21000;-63
2022/01/17 03:48:23;;;;;;;5.87;2.87;;;;;;;11.25;36.60;100071.33;1760412;80;21156;-67
2022/01/17 03:50:52;;;;;;;6.28;2.90;;;;;;;11.51;36.28;100071.14;1760819;80;21091;-63
2022/01/17 03:53:21;;;;;;;6.87;3.40;;;;;;;11.33;36.58;100059.42;1761787;80;21484;-63
2022/01/17 03:55:47;;;;;;;5.05;2.85;;;;;;;11.19;36.96;100061.14;1762652;80;21117;-63
2022/01/17 03:58:14;;;;;;;8.13;3.17;;;;;;;11.30;36.75;100063.72;1760245;80;21529;-75
2022/01/17 04:00:43;;;;;;;6.05;3.30;;;;;;;11.28;36.71;100059.17;1757746;80;21206;-64
2022/01/17 04:03:12;;;;;;;6.85;3.10;;;;;;;11.24;36.84;100060.56;1725469;82;21864;-64
2022/01/17 04:05:38;;;;;;;6.15;3.10;;;;;;;11.43;36.71;100055.94;1734456;81;21064;-64
2022/01/17 04:08:06;;;;;;;4.42;2.67;;;;;;;11.66;36.31;100058.25;1727126;82;21085;-65
2022/01/17 04:10:35;;;;;;;7.35;2.85;;;;;;;11.67;36.22;100048.64;1727599;82;21106;-72
2022/01/17 04:13:03;;;;;;;6.12;3.08;;;;;;;11.72;36.16;100042.33;1724249;82;21891;-65
2022/01/17 04:15:35;;;;;;;7.83;4.00;;;;;;;11.85;35.95;100036.36;1727879;82;21574;-63
2022/01/17 04:18:04;;;;;;;11.30;7.95;;;;;;;12.04;35.65;100034.80;1727122;82;21118;-63
2022/01/17 04:20:31;;;;;;;12.00;7.60;;;;;;;11.92;35.79;100034.06;1726103;82;21129;-65
2022/01/17 04:23:02;;;;;;;10.82;5.95;;;;;;;11.61;36.02;100038.97;1727201;82;21526;-63
2022/01/17 04:25:30;;;;;;;5.45;2.80;;;;;;;11.42;36.32;100032.16;1724636;82;21139;-63
2022/01/17 04:28:00;;;;;;;5.45;2.67;;;;;;;11.42;36.40;100030.84;1735598;81;21149;-63
2022/01/17 04:30:28;;;;;;;6.25;2.87;;;;;;;11.18;36.80;100019.60;1728047;82;20999;-65
2022/01/17 04:32:55;;;;;;;5.33;3.08;;;;;;;11.37;36.71;100025.41;1702868;82;21401;-63
2022/01/17 04:35:25;;;;;;;7.95;3.55;;;;;;;11.37;36.78;100019.39;1728864;82;21572;-69
2022/01/17 04:37:55;;;;;;;9.85;4.37;;;;;;;11.27;36.98;100019.73;1737827;81;21188;-64
2022/01/17 04:40:22;;;;;;;10.50;4.47;;;;;;;11.23;36.94;100022.42;1725765;82;21067;-67
2022/01/17 04:42:53;;;;;;;7.20;4.00;;;;;;;10.93;37.44;100014.02;1735548;81;21580;-67
2022/01/17 04:45:20;;;;;;;7.67;4.42;;;;;;;11.11;37.20;100013.53;1731173;81;21158;-63
2022/01/17 04:47:52;;;;;;;6.87;3.75;;;;;;;10.76;37.54;100005.70;1729613;82;20988;-64
2022/01/17 04:50:23;;;;;;;8.10;4.05;;;;;;;10.89;37.52;100003.17;1723672;82;21516;-66
2022/01/17 04:52:50;;;;;;;6.15;3.55;;;;;;;11.11;37.09;100000.50;1726282;82;21046;-63
2022/01/17 04:55:19;;;;;;;10.23;6.15;;;;;;;11.32;36.89;99987.33;1725789;82;21080;-63
2022/01/17 04:57:46;;;;;;;9.40;4.85;;;;;;;11.53;36.61;99993.45;1737024;81;21036;-65
2022/01/17 05:00:16;;;;;;;9.15;5.33;;;;;;;11.54;36.45;99990.64;1737202;81;21591;-74
2022/01/17 05:02:44;;;;;;;;;;;;;;;11.21;36.85;99993.10;1702538;81;21485;-64
2022/01/17 05:05:11;;;;;;;9.45;5.92;;;;;;;11.33;36.75;99995.99;1692534;84;20234;-64
2022/01/17 05:07:39;;;;;;;9.05;5.08;;;;;;;11.33;36.69;99992.08;1687477;83;21011;-65
2022/01/17 05:10:10;;;;;;;8.80;4.65;;;;;;;11.52;36.47;99997.07;1714036;83;20978;-65
2022/01/17 05:12:39;;;;;;;9.33;5.05;;;;;;;11.46;36.45;99998.64;1712633;82;21029;-66
2022/01/17 05:15:12;;;;;;;11.08;4.83;;;;;;;11.12;36.82;99996.88;1713260;83;21835;-63
2022/01/17 05:17:43;;;;;;;10.58;5.78;;;;;;;11.11;36.86;99983.54;1714901;83;21418;-63
2022/01/17 05:20:06;;;;;;;9.28;5.05;;;;;;;11.15;36.73;99976.94;1709006;82;20950;-75
2022/01/17 05:22:37;;;;;;;8.83;4.60;;;;;;;11.07;36.71;99971.37;1707778;82;20994;-77
2022/01/17 05:25:08;;;;;;;11.60;5.65;;;;;;;11.11;36.65;99965.28;1709884;83;21110;-65
2022/01/17 05:27:35;;;;;;;9.08;5.00;;;;;;;11.04;36.65;99968.34;1694671;83;21805;-63
2022/01/17 05:30:05;;;;;;;9.90;5.28;;;;;;;11.05;36.45;99971.25;1693895;83;21008;-67
2022/01/17 05:32:32;;;;;;;12.15;4.72;;;;;;;10.97;36.71;99968.31;1693654;83;21484;-72
2022/01/17 05:34:59;;;;;;;11.70;6.12;;;;;;;11.23;36.21;99975.47;1706273;82;21081;-63
2022/01/17 05:37:26;;;;;;;9.65;5.30;;;;;;;11.09;36.50;99977.70;1706555;82;21086;-74
2022/01/17 05:39:55;;;;;;;11.43;6.97;;;;;;;11.25;36.29;99977.87;1675916;84;21478;-74
2022/01/17 05:42:24;;;;;;;9.95;4.92;;;;;;;11.27;36.11;99972.77;1670048;84;21071;-73
2022/01/17 05:44:53;;;;;;;8.68;5.00;;;;;;;11.30;35.93;99975.00;1646464;85;21164;-63
2022/01/17 05:47:20;;;;;;;10.20;5.85;;;;;;;11.45;35.85;99975.66;1692757;83;21098;-63
2022/01/17 05:49:46;;;;;;;12.43;5.53;;;;;;;11.58;35.52;99965.75;1712646;83;20996;-77
2022/01/17 05:52:13;;;;;;;12.40;5.92;;;;;;;11.25;35.71;99968.27;1709757;83;21152;-66
2022/01/17 05:54:40;;;;;;;10.03;5.42;;;;;;;11.16;35.94;99961.08;1692915;83;21926;-75
2022/01/17 05:57:08;;;;;;;11.65;5.30;;;;;;;11.13;35.98;99964.57;1694090;83;21447;-65
2022/01/17 05:59:36;;;;;;;12.18;6.25;;;;;;;11.32;35.71;99961.23;1712769;82;20955;-67
2022/01/17 06:02:04;;;;;;;13.38;7.08;;;;;;;11.24;35.77;99956.70;1679239;84;21016;-64
2022/01/17 06:04:31;;;;;;;14.63;6.80;;;;;;;11.44;35.67;99954.98;1659213;84;21462;-74
2022/01/17 06:06:59;;;;;;;10.75;6.15;;;;;;;11.58;35.47;99958.42;1686656;83;21405;-64
2022/01/17 06:09:27;;;;;;;10.68;5.85;;;;;;;11.55;35.59;99949.67;1660364;84;21553;-64
2022/01/17 06:11:56;;;;;;;13.95;7.12;;;;;;;11.50;35.71;99943.74;1685882;83;21342;-65
2022/01/17 06:14:23;;;;;;;13.68;6.65;;;;;;;11.57;35.72;99942.46;1687184;83;21010;-65
2022/01/17 06:16:51;;;;;;;11.68;5.50;;;;;;;11.42;35.65;99931.67;1688389;83;21143;-68
2022/01/17 06:19:22;;;;;;;9.90;5.65;;;;;;;11.43;35.65;99925.95;1686102;83;21062;-72
2022/01/17 06:21:49;;;;;;;8.55;5.25;;;;;;;11.53;35.57;99928.20;1687046;83;28540;-64
2022/01/17 06:24:16;;;;;;;9.98;6.12;;;;;;;11.60;35.10;99914.66;1717463;81;20986;-68
2022/01/17 06:26:46;;;;;;;9.95;5.12;;;;;;;11.43;35.05;99901.16;1718502;81;21101;-65
2022/01/17 06:29:13;;;;;;;10.50;4.95;;;;;;;11.58;34.83;99904.91;1719691;81;21795;-65
2022/01/17 06:31:41;;;;;;;9.70;4.75;;;;;;;11.45;34.94;99898.66;1719039;81;20974;-67
2022/01/17 06:34:08;;;;;;;8.78;4.45;;;;;;;11.43;35.01;99891.52;1717988;81;21615;-67
2022/01/17 06:36:35;;;;;;;8.90;4.35;;;;;;;11.55;34.97;99893.55;1714485;81;20976;-64
2022/01/17 06:39:03;;;;;;;7.72;4.20;;;;;;;11.34;35.31;99900.54;1721076;81;21110;-64
2022/01/17 06:41:31;;;;;;;8.03;3.77;;;;;;;11.41;35.29;99890.12;1720444;81;21181;-71
2022/01/17 06:43:58;;;;;;;6.25;3.70;;;;;;;11.36;35.28;99874.23;1719125;81;21024;-65
2022/01/17 06:46:24;;;;;;;6.55;4.55;;;;;;;11.59;34.78;99859.52;1716390;81;21023;-75
2022/01/17 06:48:51;;;;;;;7.12;3.90;;;;;;;11.51;34.94;99837.02;1717996;81;21161;-66
2022/01/17 06:51:19;;;;;;;7.03;3.95;;;;;;;11.72;34.61;99822.98;1719897;81;21016;-63
2022/01/17 06:53:45;;;;;;;8.03;4.15;;;;;;;11.76;34.62;99824.19;1717893;81;21239;-65
2022/01/17 06:56:12;;;;;;;11.15;5.53;;;;;;;11.83;34.75;99821.11;1718490;81;21082;-72
2022/01/17 06:58:40;;;;;;;10.00;5.45;;;;;;;11.92;34.40;99816.48;1718959;81;21000;-65
2022/01/17 07:01:07;;;;;;;10.58;4.78;;;;;;;11.88;34.07;99811.36;1716075;81;21057;-64
2022/01/17 07:03:34;;;;;;;9.78;5.42;;;;;;;11.79;34.00;99832.94;1719158;81;21038;-66
2022/01/17 07:06:00;;;;;;;9.68;4.78;;;;;;;11.64;34.19;99863.66;1719331;81;21860;-64
2022/01/17 07:08:27;;;;;;;10.58;5.08;;;;;;;11.90;33.97;99894.25;1718395;81;20980;-68
2022/01/17 07:10:54;;;;;;;8.73;5.33;;;;;;;11.98;33.82;99926.70;1714069;81;21153;-67
2022/01/17 07:13:21;;;;;;;9.30;5.53;;;;;;;11.92;33.81;99934.02;1717376;81;21540;-65
2022/01/17 07:15:48;;;;;;;9.40;5.80;;;;;;;12.03;33.98;99906.50;1718913;81;21012;-67
2022/01/17 07:18:16;;;;;;;12.47;6.15;;;;;;;12.10;33.70;99896.85;1716147;81;21556;-64
2022/01/17 07:20:43;;;;;;;10.98;5.47;;;;;;;12.20;33.63;99859.38;1716159;81;21473;-70
2022/01/17 07:23:09;;;;;;;26.77;7.30;;;;;;;12.20;33.72;99847.61;1717793;81;21090;-63
2022/01/17 07:25:38;;;;;;;11.20;6.30;;;;;;;12.35;33.66;99869.09;1718799;81;20918;-68
2022/01/17 07:28:08;;;;;;;13.70;6.92;;;;;;;12.34;33.86;99877.13;1717113;81;21015;-66
2022/01/17 07:30:35;;;;;;;13.30;7.10;;;;;;;12.41;33.94;99881.33;1718509;81;21152;-66
2022/01/17 07:33:02;;;;;;;10.32;5.75;;;;;;;12.37;34.12;99894.51;1719271;81;20904;-67
2022/01/17 07:35:30;;;;;;;11.78;5.62;;;;;;;12.30;34.16;99883.77;1719021;81;21098;-67
2022/01/17 07:37:56;;;;;;;8.93;6.15;;;;;;;12.58;33.90;99860.00;1719792;81;21016;-65
2022/01/17 07:40:23;;;;;;;15.18;8.90;;;;;;;12.82;33.77;99856.69;1721134;81;21602;-66
2022/01/17 07:42:49;;;;;;;15.58;7.83;;;;;;;12.89;33.72;99799.11;1717589;81;21224;-67
2022/01/17 07:45:19;;;;;;;11.12;6.72;;;;;;;12.84;33.87;99764.44;1717937;81;21053;-64
2022/01/17 07:50:21;;;;;;;8.90;5.55;;;;;;;13.69;33.52;99741.79;1657485;85;21142;-67
2022/01/17 07:52:48;;;;;;;10.05;5.62;;;;;;;14.25;33.01;99742.64;1688705;83;21620;-71
2022/01/17 07:55:15;;;;;;;10.32;5.45;;;;;;;14.50;32.05;99699.28;1660811;84;21118;-66
2022/01/17 07:57:42;;;;;;;10.05;5.65;;;;;;;14.31;32.02;99704.52;1673378;84;21069;-65
2022/01/17 08:00:13;;;;;;;12.47;7.00;;;;;;;14.44;31.60;99729.80;1658322;84;21154;-66
2022/01/17 08:02:42;;;;;;;12.10;6.40;;;;;;;14.39;31.45;99715.73;1690259;82;21113;-68
2022/01/17 08:05:14;;;;;;;12.60;6.25;;;;;;;14.07;31.80;99726.40;1726711;81;21014;-68
2022/01/17 08:07:38;;;;;;;11.90;6.00;;;;;;;14.10;31.78;99714.97;1727834;81;22028;-69
2022/01/17 08:10:12;;;;;;;9.85;5.50;;;;;;;14.00;32.10;99721.73;1728439;81;21065;-66
2022/01/17 08:12:34;;;;;;;9.63;5.70;;;;;;;14.29;32.22;99729.38;1728692;81;21169;-71
2022/01/17 08:15:04;;;;;;;10.00;6.10;;;;;;;14.64;31.87;99739.26;1723295;81;21074;-67
2022/01/17 08:17:30;;;;;;;9.65;5.65;;;;;;;14.91;31.46;99737.86;1729162;81;20939;-68
2022/01/17 08:20:00;;;;;;;9.50;6.10;;;;;;;15.20;31.12;99714.44;1728753;81;21134;-69
2022/01/17 08:22:26;;;;;;;8.30;5.40;;;;;;;15.28;31.20;99689.15;1729857;81;20947;-67
2022/01/17 08:24:55;;;;;;;10.55;5.67;;;;;;;15.42;30.69;99681.34;1730152;81;21157;-72
2022/01/17 08:27:22;;;;;;;10.08;5.25;;;;;;;15.73;30.30;99682.83;1731459;81;20942;-66
2022/01/17 08:29:51;;;;;;;11.48;6.90;;;;;;;15.71;29.88;99665.17;1728674;81;20933;-66
2022/01/17 08:32:17;;;;;;;12.00;5.85;;;;;;;15.60;29.98;99663.32;1727671;81;22045;-67
2022/01/17 08:34:44;;;;;;;10.68;6.33;;;;;;;15.40;30.11;99660.27;1728923;81;20891;-68
2022/01/17 08:37:11;;;;;;;12.53;5.92;;;;;;;15.55;29.91;99657.97;1727878;81;20953;-66
2022/01/17 08:39:39;;;;;;;10.80;5.17;;;;;;;15.53;29.71;99664.78;1726866;82;21093;-69
2022/01/17 08:42:10;;;;;;;10.10;6.03;;;;;;;15.41;29.82;99661.34;1725878;81;21097;-66
2022/01/17 08:44:36;;;;;;;11.33;5.78;;;;;;;15.29;30.07;99663.97;1729563;81;21163;-67
2022/01/17 08:47:05;;;;;;;10.48;5.72;;;;;;;15.46;29.91;99642.28;1727226;81;21656;-72
2022/01/17 08:49:31;;;;;;;10.05;5.58;;;;;;;15.29;30.32;99641.64;1725949;81;21528;-71
2022/01/17 08:51:58;;;;;;;10.10;5.90;;;;;;;15.31;30.55;99640.92;1724700;81;21058;-67
2022/01/17 08:54:24;;;;;;;8.83;5.75;;;;;;;15.29;30.80;99625.09;1727000;81;21039;-66
2022/01/17 08:56:52;;;;;;;9.20;5.35;;;;;;;15.27;30.48;99614.83;1728385;81;20971;-75
2022/01/17 08:59:20;;;;;;;11.05;6.50;;;;;;;15.15;30.55;99608.77;1728616;81;20987;-73
2022/01/17 09:01:49;;;;;;;9.15;6.10;;;;;;;15.09;30.66;99620.20;1701674;81;21046;-68
2022/01/17 09:04:20;;;;;;;12.65;6.70;;;;;;;15.24;30.68;99611.34;1706658;81;21077;-65
2022/01/17 09:06:47;;;;;;;10.65;6.58;;;;;;;15.07;30.99;99619.61;1702998;82;21035;-73
2022/01/17 09:09:16;;;;;;;9.70;6.87;;;;;;;14.86;31.42;99619.66;1699703;82;21145;-77
2022/01/17 09:11:44;;;;;;;11.15;6.37;;;;;;;14.65;31.46;99618.36;1701032;82;22113;-72
2022/01/17 09:14:14;;;;;;;10.70;6.70;;;;;;;14.45;31.85;99614.70;1700827;82;21014;-63
2022/01/17 09:16:41;;;;;;;11.63;6.97;;;;;;;14.59;31.69;99606.95;1701693;82;21153;-62
2022/01/17 09:19:08;;;;;;;12.65;7.03;;;;;;;14.45;32.10;99609.45;1700277;82;21497;-74
2022/01/17 09:21:35;;;;;;;11.35;6.53;;;;;;;14.74;31.73;99599.97;1701774;82;22500;-64
2022/01/17 09:24:04;;;;;;;10.25;6.70;;;;;;;14.50;32.09;99586.00;1700751;82;21114;-62
2022/01/17 09:26:31;;;;;;;13.62;8.15;;;;;;;14.55;32.21;99590.08;1697172;82;21074;-61
2022/01/17 09:28:58;;;;;;;11.75;6.50;;;;;;;14.69;31.94;99571.49;1701785;82;21145;-73
2022/01/17 09:31:24;;;;;;;12.40;7.33;;;;;;;14.76;31.97;99544.13;1704407;82;21177;-61
2022/01/17 09:33:50;;;;;;;12.75;7.70;;;;;;;14.79;32.07;99540.26;1706158;82;21154;-61
2022/01/17 09:36:17;;;;;;;10.40;6.72;;;;;;;14.86;32.14;99538.32;1699197;82;21501;-63
2022/01/17 09:38:44;;;;;;;11.65;6.87;;;;;;;15.03;31.97;99520.05;1696102;82;21580;-63
2022/01/17 09:41:10;;;;;;;11.18;6.85;;;;;;;15.03;31.96;99529.23;1700700;82;21149;-78
2022/01/17 09:43:38;;;;;;;9.78;6.17;;;;;;;15.02;31.89;99517.14;1703460;82;20919;-65
2022/01/17 09:46:05;;;;;;;9.90;6.45;;;;;;;15.14;31.76;99517.92;1704921;82;21168;-67
2022/01/17 09:48:37;;;;;;;10.80;6.28;;;;;;;15.05;31.99;99508.81;1699418;82;21153;-59
2022/01/17 09:51:38;;;;;;;14.07;6.75;;;;;;;15.02;32.15;99504.02;1701547;82;21039;-65
2022/01/17 09:53:52;;;;;;;12.33;7.08;;;;;;;15.12;31.99;99495.58;1695553;82;21106;-61
2022/01/17 09:56:20;;;;;;;11.05;6.05;;;;;;;15.08;32.05;99491.30;1702319;82;20943;-60
2022/01/17 09:58:48;;;;;;;11.83;7.15;;;;;;;15.25;32.06;99455.40;1666078;84;21165;-60
2022/01/17 10:01:14;;;;;;;12.60;6.92;;;;;;;15.40;32.01;99469.86;1660056;84;20981;-74
2022/01/17 10:03:41;;;;;;;12.63;7.45;;;;;;;15.46;32.01;99478.92;1707868;81;21124;-61
2022/01/17 10:06:07;;;;;;;13.43;6.92;;;;;;;15.60;31.69;99482.05;1717961;81;20986;-61
2022/01/17 10:08:34;;;;;;;12.15;6.60;;;;;;;15.65;31.65;99473.00;1717057;81;20988;-61
2022/01/17 10:11:02;;;;;;;11.43;6.03;;;;;;;15.57;31.81;99468.89;1717921;81;21161;-79
2022/01/17 10:13:37;;;;;;;11.00;6.10;;;;;;;15.57;31.72;99456.28;1723634;81;21081;-64
2022/01/17 10:16:19;;;;;;;12.10;6.67;;;;;;;15.76;31.56;99443.25;1728780;81;21485;-64
2022/01/17 10:19:02;;;;;;;12.68;6.25;;;;;;;16.00;31.39;99432.59;1723973;81;21467;-75
2022/01/17 10:21:47;;;;;;;9.60;6.53;;;;;;;16.10;31.24;99424.88;1726187;81;21087;-64
2022/01/17 10:24:26;;;;;;;12.03;6.45;;;;;;;16.46;31.28;99409.09;1720810;81;21805;-78
2022/01/17 10:35:31;;;;;;;10.48;5.58;;;;;;;17.36;29.94;99338.55;1719832;81;21089;-74
2022/01/17 10:38:14;;;;;;;10.45;5.95;;;;;;;17.26;29.86;99343.19;1719733;81;21129;-64
2022/01/17 10:40:45;;;;;;;11.08;5.55;;;;;;;17.00;30.32;99355.30;1720145;81;21048;-74
2022/01/17 10:43:38;;;;;;;11.10;5.80;;;;;;;17.25;30.08;99337.66;1718699;81;20981;-62
2022/01/17 10:46:11;;;;;;;11.30;5.60;;;;;;;17.16;30.24;99339.66;1720274;81;21471;-62
2022/01/17 10:48:44;;;;;;;9.90;5.67;;;;;;;17.05;30.06;99340.59;1720770;81;22300;-63
2022/01/17 10:51:12;;;;;;;11.75;6.62;;;;;;;16.55;30.97;99343.69;1688931;83;21114;-65
2022/01/17 10:53:41;;;;;;;11.80;6.62;;;;;;;16.46;30.77;99330.17;1656392;84;21059;-63
2022/01/17 10:56:10;;;;;;;12.18;6.33;;;;;;;16.52;31.00;99329.20;1689976;82;20951;-75
2022/01/17 10:58:38;;;;;;;10.50;6.08;;;;;;;16.62;30.96;99345.63;1693850;83;20980;-68
2022/01/17 11:01:11;;;;;;;10.58;5.83;;;;;;;16.60;30.87;99345.61;1721007;81;21538;-65
2022/01/17 11:03:39;;;;;;;10.82;5.80;;;;;;;16.42;31.30;99341.43;1719099;81;21780;-63
2022/01/17 11:06:11;;;;;;;9.08;5.17;;;;;;;16.59;31.16;99338.73;1707137;82;21092;-72
2022/01/17 11:08:41;;;;;;;10.00;5.65;;;;;;;16.53;31.18;99322.90;1705881;82;21477;-66
2022/01/17 11:11:09;;;;;;;10.98;5.60;;;;;;;16.15;31.58;99326.35;1709089;82;21051;-64
2022/01/17 11:13:42;;;;;;;11.15;6.20;;;;;;;16.17;31.66;99321.63;1706207;82;20948;-63
2022/01/17 11:16:11;;;;;;;9.73;6.00;;;;;;;16.22;31.65;99310.41;1709621;82;21227;-73
2022/01/17 11:18:36;;;;;;;12.18;6.17;;;;;;;16.37;31.82;99331.65;1677649;84;21140;-63
2022/01/17 11:21:10;;;;;;;12.63;6.33;;;;;;;16.45;31.74;99339.64;1647460;86;21076;-63
2022/01/17 11:23:35;;;;;;;10.35;5.75;;;;;;;16.23;31.82;99302.27;1704648;82;21205;-66
2022/01/17 11:26:01;;;;;;;14.13;6.55;;;;;;;16.27;31.84;99306.52;1711385;82;21031;-68
2022/01/17 11:28:30;;;;;;;12.80;5.90;;;;;;;16.01;32.26;99302.23;1711335;82;21149;-67
2022/01/17 11:30:59;;;;;;;13.18;6.22;;;;;;;16.03;32.28;99300.69;1694159;83;21610;-63
2022/01/17 11:33:28;;;;;;;12.88;6.28;;;;;;;16.22;32.05;99286.22;1694449;83;21514;-67
2022/01/17 11:35:56;;;;;;;79.80;44.88;;;;;;;15.89;32.39;99290.23;1707657;82;21556;-66
2022/01/17 11:38:39;;;;;;;34.75;22.05;;;;;;;15.94;32.60;99285.03;1674911;84;20937;-74
2022/01/17 11:41:06;;;;;;;13.32;7.95;;;;;;;15.95;32.45;99276.92;1673059;84;21099;-60
2022/01/17 11:43:37;;;;;;;15.32;8.63;;;;;;;15.37;33.08;99267.61;1671593;84;21025;-62
2022/01/17 11:46:25;;;;;;;12.93;6.67;;;;;;;15.81;32.97;99255.96;1694293;83;21066;-69
2022/01/17 11:49:07;;;;;;;13.03;6.83;;;;;;;15.75;33.05;99253.77;1692578;83;21012;-62